sensor_id;sensor_type;location;lat;lon;timestamp;P1;durP1;ratioP1;P2;durP2;ratioP2
57551;SDS011;43379;48.160;14.036;2022-10-17T00:01:08;49.00;;;43.30;;
57551;SDS011;43379;48.160;14.036;2022-10-17T00:03:35;47.67;;;42.50;;
57551;SDS011;43379;48.160;14.036;2022-10-17T00:06:11;57.33;;;46.93;;
57551;SDS011;43379;48.160;14.036;2022-10-17T00:08:38;55.13;;;42.70;;
57551;SDS011;43379;48.160;14.036;2022-10-17T00:11:10;46.30;;;41.30;;
57551;SDS011;43379;48.160;14.036;2022-10-17T00:13:39;55.80;;;42.90;;
57551;SDS011;43379;48.160;14.036;2022-10-17T00:16:05;55.97;;;44.90;;
57551;SDS011;43379;48.160;14.036;2022-10-17T00:18:31;43.40;;;38.90;;
57551;SDS011;43379;48.160;14.036;2022-10-17T00:20:57;44.00;;;39.53;;
57551;SDS011;43379;48.160;14.036;2022-10-17T00:23:22;43.13;;;38.83;;
57551;SDS011;43379;48.160;14.036;2022-10-17T00:25:57;42.87;;;38.67;;
57551;SDS011;43379;48.160;14.036;2022-10-17T00:28:26;39.40;;;35.60;;
57551;SDS011;43379;48.160;14.036;2022-10-17T00:30:58;42.07;;;37.77;;
57551;SDS011;43379;48.160;14.036;2022-10-17T00:33:26;42.87;;;38.63;;
57551;SDS011;43379;48.160;14.036;2022-10-17T00:36:02;45.80;;;41.33;;
57551;SDS011;43379;48.160;14.036;2022-10-17T00:38:33;43.60;;;38.90;;
57551;SDS011;43379;48.160;14.036;2022-10-17T00:41:00;43.63;;;39.17;;
57551;SDS011;43379;48.160;14.036;2022-10-17T00:43:26;47.53;;;41.40;;
57551;SDS011;43379;48.160;14.036;2022-10-17T00:45:53;45.50;;;40.53;;
57551;SDS011;43379;48.160;14.036;2022-10-17T00:48:19;48.33;;;43.17;;
57551;SDS011;43379;48.160;14.036;2022-10-17T00:50:47;61.17;;;46.37;;
57551;SDS011;43379;48.160;14.036;2022-10-17T00:53:14;48.17;;;43.17;;
57551;SDS011;43379;48.160;14.036;2022-10-17T00:55:44;67.67;;;45.63;;
57551;SDS011;43379;48.160;14.036;2022-10-17T00:58:14;46.47;;;41.67;;
57551;SDS011;43379;48.160;14.036;2022-10-17T01:00:41;52.23;;;45.13;;
57551;SDS011;43379;48.160;14.036;2022-10-17T01:03:08;60.10;;;43.90;;
57551;SDS011;43379;48.160;14.036;2022-10-17T01:05:33;51.17;;;45.87;;
57551;SDS011;43379;48.160;14.036;2022-10-17T01:07:59;48.07;;;43.23;;
57551;SDS011;43379;48.160;14.036;2022-10-17T01:10:34;52.67;;;46.93;;
57551;SDS011;43379;48.160;14.036;2022-10-17T01:38:07;47.33;;;42.73;;
57551;SDS011;43379;48.160;14.036;2022-10-17T01:40:45;47.23;;;42.73;;
57551;SDS011;43379;48.160;14.036;2022-10-17T01:43:30;47.30;;;42.67;;
57551;SDS011;43379;48.160;14.036;2022-10-17T01:45:58;48.53;;;43.80;;
57551;SDS011;43379;48.160;14.036;2022-10-17T01:48:41;47.60;;;42.80;;
57551;SDS011;43379;48.160;14.036;2022-10-17T01:51:17;48.30;;;43.30;;
57551;SDS011;43379;48.160;14.036;2022-10-17T01:53:55;48.37;;;43.43;;
57551;SDS011;43379;48.160;14.036;2022-10-17T01:56:26;51.60;;;45.10;;
57551;SDS011;43379;48.160;14.036;2022-10-17T01:58:56;49.80;;;43.77;;
57551;SDS011;43379;48.160;14.036;2022-10-17T02:01:27;48.90;;;43.67;;
57551;SDS011;43379;48.160;14.036;2022-10-17T02:03:54;50.80;;;46.00;;
57551;SDS011;43379;48.160;14.036;2022-10-17T02:06:22;49.33;;;44.13;;
57551;SDS011;43379;48.160;14.036;2022-10-17T02:08:48;56.33;;;48.10;;
57551;SDS011;43379;48.160;14.036;2022-10-17T02:22:09;51.60;;;46.63;;
57551;SDS011;43379;48.160;14.036;2022-10-17T02:24:53;55.93;;;49.97;;
57551;SDS011;43379;48.160;14.036;2022-10-17T02:27:41;51.83;;;46.53;;
57551;SDS011;43379;48.160;14.036;2022-10-17T02:35:48;49.97;;;44.80;;
57551;SDS011;43379;48.160;14.036;2022-10-17T02:38:18;52.43;;;46.93;;
57551;SDS011;43379;48.160;14.036;2022-10-17T02:40:45;51.40;;;45.97;;
57551;SDS011;43379;48.160;14.036;2022-10-17T02:43:15;51.63;;;46.53;;
57551;SDS011;43379;48.160;14.036;2022-10-17T02:45:41;49.97;;;44.97;;
57551;SDS011;43379;48.160;14.036;2022-10-17T02:48:08;53.90;;;47.47;;
57551;SDS011;43379;48.160;14.036;2022-10-17T02:51:00;53.90;;;47.20;;
57551;SDS011;43379;48.160;14.036;2022-10-17T02:56:20;54.80;;;47.40;;
57551;SDS011;43379;48.160;14.036;2022-10-17T02:58:47;54.30;;;48.27;;
57551;SDS011;43379;48.160;14.036;2022-10-17T03:01:18;55.00;;;49.20;;
57551;SDS011;43379;48.160;14.036;2022-10-17T03:03:44;54.87;;;49.17;;
57551;SDS011;43379;48.160;14.036;2022-10-17T03:06:10;53.53;;;47.83;;
57551;SDS011;43379;48.160;14.036;2022-10-17T03:08:35;53.63;;;46.60;;
57551;SDS011;43379;48.160;14.036;2022-10-17T03:11:01;51.53;;;45.93;;
57551;SDS011;43379;48.160;14.036;2022-10-17T03:13:27;55.50;;;49.60;;
57551;SDS011;43379;48.160;14.036;2022-10-17T03:15:54;59.37;;;49.17;;
57551;SDS011;43379;48.160;14.036;2022-10-17T03:18:21;56.07;;;50.03;;
57551;SDS011;43379;48.160;14.036;2022-10-17T03:20:47;53.87;;;48.20;;
57551;SDS011;43379;48.160;14.036;2022-10-17T03:23:12;63.63;;;51.60;;
57551;SDS011;43379;48.160;14.036;2022-10-17T03:25:38;58.53;;;50.10;;
57551;SDS011;43379;48.160;14.036;2022-10-17T03:28:04;59.70;;;52.20;;
57551;SDS011;43379;48.160;14.036;2022-10-17T03:30:30;53.30;;;47.77;;
57551;SDS011;43379;48.160;14.036;2022-10-17T03:32:57;51.73;;;46.17;;
57551;SDS011;43379;48.160;14.036;2022-10-17T03:35:23;54.70;;;48.80;;
57551;SDS011;43379;48.160;14.036;2022-10-17T03:37:49;58.27;;;49.23;;
57551;SDS011;43379;48.160;14.036;2022-10-17T03:40:14;55.30;;;49.37;;
57551;SDS011;43379;48.160;14.036;2022-10-17T03:42:40;53.00;;;47.20;;
57551;SDS011;43379;48.160;14.036;2022-10-17T03:45:06;53.27;;;46.63;;
57551;SDS011;43379;48.160;14.036;2022-10-17T03:47:32;52.20;;;46.60;;
57551;SDS011;43379;48.160;14.036;2022-10-17T03:49:58;61.13;;;47.90;;
57551;SDS011;43379;48.160;14.036;2022-10-17T03:52:23;51.93;;;45.03;;
57551;SDS011;43379;48.160;14.036;2022-10-17T03:54:49;56.07;;;48.23;;
57551;SDS011;43379;48.160;14.036;2022-10-17T03:57:15;60.87;;;46.87;;
57551;SDS011;43379;48.160;14.036;2022-10-17T03:59:42;56.17;;;46.97;;
57551;SDS011;43379;48.160;14.036;2022-10-17T04:02:07;58.60;;;46.73;;
57551;SDS011;43379;48.160;14.036;2022-10-17T04:04:33;43.33;;;38.73;;
57551;SDS011;43379;48.160;14.036;2022-10-17T04:06:59;45.20;;;40.57;;
57551;SDS011;43379;48.160;14.036;2022-10-17T04:09:24;46.93;;;42.13;;
57551;SDS011;43379;48.160;14.036;2022-10-17T04:11:50;44.33;;;39.87;;
57551;SDS011;43379;48.160;14.036;2022-10-17T04:14:16;43.47;;;38.97;;
57551;SDS011;43379;48.160;14.036;2022-10-17T04:16:41;47.87;;;39.30;;
57551;SDS011;43379;48.160;14.036;2022-10-17T04:19:12;42.87;;;38.50;;
57551;SDS011;43379;48.160;14.036;2022-10-17T04:21:38;45.80;;;39.73;;
57551;SDS011;43379;48.160;14.036;2022-10-17T04:24:04;43.87;;;39.37;;
57551;SDS011;43379;48.160;14.036;2022-10-17T04:26:29;45.60;;;40.80;;
57551;SDS011;43379;48.160;14.036;2022-10-17T04:28:55;44.40;;;39.67;;
57551;SDS011;43379;48.160;14.036;2022-10-17T04:31:21;47.70;;;41.43;;
57551;SDS011;43379;48.160;14.036;2022-10-17T04:33:47;45.50;;;40.10;;
57551;SDS011;43379;48.160;14.036;2022-10-17T04:36:15;46.73;;;40.53;;
57551;SDS011;43379;48.160;14.036;2022-10-17T04:38:42;43.40;;;38.80;;
57551;SDS011;43379;48.160;14.036;2022-10-17T04:41:12;43.47;;;39.13;;
57551;SDS011;43379;48.160;14.036;2022-10-17T04:43:39;46.57;;;40.70;;
57551;SDS011;43379;48.160;14.036;2022-10-17T04:46:06;43.13;;;38.63;;
57551;SDS011;43379;48.160;14.036;2022-10-17T04:48:36;43.23;;;38.90;;
57551;SDS011;43379;48.160;14.036;2022-10-17T04:51:03;45.43;;;40.67;;
57551;SDS011;43379;48.160;14.036;2022-10-17T04:53:32;39.47;;;35.47;;
57551;SDS011;43379;48.160;14.036;2022-10-17T04:56:00;43.07;;;38.40;;
57551;SDS011;43379;48.160;14.036;2022-10-17T04:58:31;43.30;;;38.70;;
57551;SDS011;43379;48.160;14.036;2022-10-17T05:00:56;43.67;;;39.07;;
57551;SDS011;43379;48.160;14.036;2022-10-17T05:03:22;44.47;;;39.67;;
57551;SDS011;43379;48.160;14.036;2022-10-17T05:05:48;39.93;;;35.70;;
57551;SDS011;43379;48.160;14.036;2022-10-17T05:08:13;40.70;;;36.40;;
57551;SDS011;43379;48.160;14.036;2022-10-17T05:10:40;40.80;;;36.40;;
57551;SDS011;43379;48.160;14.036;2022-10-17T05:13:08;40.80;;;36.63;;
57551;SDS011;43379;48.160;14.036;2022-10-17T05:15:35;40.70;;;36.43;;
57551;SDS011;43379;48.160;14.036;2022-10-17T05:18:01;42.57;;;37.73;;
57551;SDS011;43379;48.160;14.036;2022-10-17T05:20:28;43.33;;;38.90;;
57551;SDS011;43379;48.160;14.036;2022-10-17T05:22:53;44.93;;;40.07;;
57551;SDS011;43379;48.160;14.036;2022-10-17T05:25:19;46.40;;;41.27;;
57551;SDS011;43379;48.160;14.036;2022-10-17T05:27:46;47.57;;;42.47;;
57551;SDS011;43379;48.160;14.036;2022-10-17T05:30:11;47.03;;;42.10;;
57551;SDS011;43379;48.160;14.036;2022-10-17T05:32:37;45.63;;;40.83;;
57551;SDS011;43379;48.160;14.036;2022-10-17T05:35:03;42.00;;;36.83;;
57551;SDS011;43379;48.160;14.036;2022-10-17T05:37:29;47.93;;;41.67;;
57551;SDS011;43379;48.160;14.036;2022-10-17T05:39:56;56.33;;;44.10;;
57551;SDS011;43379;48.160;14.036;2022-10-17T05:42:22;55.80;;;46.20;;
57551;SDS011;43379;48.160;14.036;2022-10-17T05:44:47;49.47;;;44.17;;
57551;SDS011;43379;48.160;14.036;2022-10-17T05:47:13;48.00;;;42.80;;
57551;SDS011;43379;48.160;14.036;2022-10-17T05:49:39;48.03;;;40.03;;
57551;SDS011;43379;48.160;14.036;2022-10-17T05:52:05;46.07;;;39.20;;
57551;SDS011;43379;48.160;14.036;2022-10-17T05:54:30;40.73;;;34.93;;
57551;SDS011;43379;48.160;14.036;2022-10-17T05:56:56;39.60;;;34.30;;
57551;SDS011;43379;48.160;14.036;2022-10-17T05:59:23;37.03;;;33.03;;
57551;SDS011;43379;48.160;14.036;2022-10-17T06:01:49;38.40;;;34.40;;
57551;SDS011;43379;48.160;14.036;2022-10-17T06:04:15;32.20;;;28.70;;
57551;SDS011;43379;48.160;14.036;2022-10-17T06:06:41;36.73;;;30.40;;
57551;SDS011;43379;48.160;14.036;2022-10-17T06:09:07;30.97;;;27.77;;
57551;SDS011;43379;48.160;14.036;2022-10-17T06:11:33;31.37;;;28.10;;
57551;SDS011;43379;48.160;14.036;2022-10-17T06:13:59;33.23;;;29.73;;
57551;SDS011;43379;48.160;14.036;2022-10-17T06:16:25;35.73;;;31.20;;
57551;SDS011;43379;48.160;14.036;2022-10-17T06:18:51;39.77;;;33.67;;
57551;SDS011;43379;48.160;14.036;2022-10-17T06:21:18;32.33;;;28.87;;
57551;SDS011;43379;48.160;14.036;2022-10-17T06:23:47;32.43;;;29.10;;
57551;SDS011;43379;48.160;14.036;2022-10-17T06:26:13;31.50;;;28.00;;
57551;SDS011;43379;48.160;14.036;2022-10-17T06:28:39;31.00;;;26.93;;
57551;SDS011;43379;48.160;14.036;2022-10-17T06:31:08;31.03;;;27.93;;
57551;SDS011;43379;48.160;14.036;2022-10-17T06:33:36;41.10;;;33.10;;
57551;SDS011;43379;48.160;14.036;2022-10-17T06:36:02;35.73;;;30.97;;
57551;SDS011;43379;48.160;14.036;2022-10-17T06:38:29;34.67;;;30.40;;
57551;SDS011;43379;48.160;14.036;2022-10-17T06:41:14;36.90;;;32.07;;
57551;SDS011;43379;48.160;14.036;2022-10-17T06:43:43;35.23;;;30.97;;
57551;SDS011;43379;48.160;14.036;2022-10-17T06:46:10;37.60;;;33.50;;
57551;SDS011;43379;48.160;14.036;2022-10-17T06:48:40;41.63;;;33.07;;
57551;SDS011;43379;48.160;14.036;2022-10-17T06:51:06;39.03;;;31.80;;
57551;SDS011;43379;48.160;14.036;2022-10-17T06:53:34;37.40;;;32.00;;
57551;SDS011;43379;48.160;14.036;2022-10-17T06:56:00;40.13;;;31.43;;
57551;SDS011;43379;48.160;14.036;2022-10-17T06:58:28;37.30;;;33.17;;
57551;SDS011;43379;48.160;14.036;2022-10-17T07:01:00;38.27;;;31.63;;
57551;SDS011;43379;48.160;14.036;2022-10-17T07:03:27;38.73;;;34.50;;
57551;SDS011;43379;48.160;14.036;2022-10-17T07:05:54;42.67;;;36.20;;
57551;SDS011;43379;48.160;14.036;2022-10-17T07:08:20;42.03;;;34.10;;
57551;SDS011;43379;48.160;14.036;2022-10-17T07:10:46;43.13;;;35.73;;
57551;SDS011;43379;48.160;14.036;2022-10-17T07:13:12;44.87;;;39.73;;
57551;SDS011;43379;48.160;14.036;2022-10-17T07:15:38;46.23;;;38.73;;
57551;SDS011;43379;48.160;14.036;2022-10-17T07:18:04;43.20;;;36.47;;
57551;SDS011;43379;48.160;14.036;2022-10-17T07:20:31;46.07;;;39.73;;
57551;SDS011;43379;48.160;14.036;2022-10-17T07:22:56;46.37;;;41.27;;
57551;SDS011;43379;48.160;14.036;2022-10-17T07:25:22;52.23;;;42.23;;
57551;SDS011;43379;48.160;14.036;2022-10-17T07:27:48;49.03;;;40.00;;
57551;SDS011;43379;48.160;14.036;2022-10-17T07:30:14;46.53;;;40.53;;
57551;SDS011;43379;48.160;14.036;2022-10-17T07:32:41;51.37;;;41.17;;
57551;SDS011;43379;48.160;14.036;2022-10-17T07:35:08;50.27;;;43.20;;
57551;SDS011;43379;48.160;14.036;2022-10-17T07:37:34;47.67;;;40.60;;
57551;SDS011;43379;48.160;14.036;2022-10-17T07:40:00;47.77;;;41.60;;
57551;SDS011;43379;48.160;14.036;2022-10-17T07:42:26;47.73;;;40.80;;
57551;SDS011;43379;48.160;14.036;2022-10-17T07:44:52;48.00;;;40.90;;
57551;SDS011;43379;48.160;14.036;2022-10-17T07:47:18;44.60;;;39.67;;
57551;SDS011;43379;48.160;14.036;2022-10-17T07:49:44;43.20;;;38.60;;
57551;SDS011;43379;48.160;14.036;2022-10-17T07:52:11;45.50;;;39.90;;
57551;SDS011;43379;48.160;14.036;2022-10-17T07:54:37;55.30;;;41.27;;
57551;SDS011;43379;48.160;14.036;2022-10-17T07:57:03;44.50;;;39.73;;
57551;SDS011;43379;48.160;14.036;2022-10-17T07:59:28;48.03;;;40.90;;
57551;SDS011;43379;48.160;14.036;2022-10-17T08:01:54;48.83;;;40.57;;
57551;SDS011;43379;48.160;14.036;2022-10-17T08:04:20;52.50;;;44.07;;
57551;SDS011;43379;48.160;14.036;2022-10-17T08:06:47;48.53;;;41.67;;
57551;SDS011;43379;48.160;14.036;2022-10-17T08:09:13;50.07;;;41.63;;
57551;SDS011;43379;48.160;14.036;2022-10-17T08:11:39;52.47;;;40.97;;
57551;SDS011;43379;48.160;14.036;2022-10-17T08:14:07;50.83;;;43.63;;
57551;SDS011;43379;48.160;14.036;2022-10-17T08:16:33;50.70;;;41.80;;
57551;SDS011;43379;48.160;14.036;2022-10-17T08:19:00;58.60;;;43.80;;
57551;SDS011;43379;48.160;14.036;2022-10-17T08:21:26;44.50;;;39.07;;
57551;SDS011;43379;48.160;14.036;2022-10-17T08:23:52;47.43;;;39.20;;
57551;SDS011;43379;48.160;14.036;2022-10-17T08:26:18;46.53;;;41.43;;
57551;SDS011;43379;48.160;14.036;2022-10-17T08:28:44;55.03;;;43.70;;
57551;SDS011;43379;48.160;14.036;2022-10-17T08:31:11;53.50;;;43.60;;
57551;SDS011;43379;48.160;14.036;2022-10-17T08:33:39;60.53;;;44.40;;
57551;SDS011;43379;48.160;14.036;2022-10-17T08:36:06;51.70;;;42.40;;
57551;SDS011;43379;48.160;14.036;2022-10-17T08:38:33;48.40;;;41.70;;
57551;SDS011;43379;48.160;14.036;2022-10-17T08:41:02;46.43;;;40.80;;
57551;SDS011;43379;48.160;14.036;2022-10-17T08:43:33;48.50;;;43.20;;
57551;SDS011;43379;48.160;14.036;2022-10-17T08:46:15;47.60;;;40.00;;
57551;SDS011;43379;48.160;14.036;2022-10-17T08:48:42;46.80;;;39.53;;
57551;SDS011;43379;48.160;14.036;2022-10-17T08:51:12;45.00;;;39.20;;
57551;SDS011;43379;48.160;14.036;2022-10-17T08:53:48;47.83;;;39.43;;
57551;SDS011;43379;48.160;14.036;2022-10-17T08:56:20;47.60;;;40.20;;
57551;SDS011;43379;48.160;14.036;2022-10-17T08:58:50;49.30;;;42.40;;
57551;SDS011;43379;48.160;14.036;2022-10-17T09:22:48;46.07;;;41.00;;
57551;SDS011;43379;48.160;14.036;2022-10-17T09:25:21;45.13;;;39.40;;
57551;SDS011;43379;48.160;14.036;2022-10-17T09:30:29;48.37;;;43.07;;
57551;SDS011;43379;48.160;14.036;2022-10-17T09:33:12;46.90;;;41.87;;
57551;SDS011;43379;48.160;14.036;2022-10-17T09:35:40;44.97;;;40.07;;
57551;SDS011;43379;48.160;14.036;2022-10-17T09:38:16;46.27;;;41.37;;
57551;SDS011;43379;48.160;14.036;2022-10-17T09:40:45;42.03;;;37.47;;
57551;SDS011;43379;48.160;14.036;2022-10-17T09:43:20;46.67;;;41.57;;
57551;SDS011;43379;48.160;14.036;2022-10-17T09:45:56;48.03;;;42.80;;
57551;SDS011;43379;48.160;14.036;2022-10-17T09:48:41;48.90;;;43.60;;
57551;SDS011;43379;48.160;14.036;2022-10-17T09:51:14;47.50;;;41.70;;
57551;SDS011;43379;48.160;14.036;2022-10-17T09:53:44;46.20;;;41.20;;
57551;SDS011;43379;48.160;14.036;2022-10-17T09:56:14;44.63;;;39.00;;
57551;SDS011;43379;48.160;14.036;2022-10-17T09:58:45;45.53;;;40.47;;
57551;SDS011;43379;48.160;14.036;2022-10-17T10:01:18;45.17;;;40.40;;
57551;SDS011;43379;48.160;14.036;2022-10-17T10:03:47;45.63;;;40.83;;
57551;SDS011;43379;48.160;14.036;2022-10-17T10:06:32;45.20;;;40.13;;
57551;SDS011;43379;48.160;14.036;2022-10-17T10:08:57;46.90;;;38.97;;
57551;SDS011;43379;48.160;14.036;2022-10-17T10:11:24;41.23;;;36.83;;
57551;SDS011;43379;48.160;14.036;2022-10-17T10:14:19;45.80;;;41.00;;
57551;SDS011;43379;48.160;14.036;2022-10-17T10:16:47;42.90;;;36.10;;
57551;SDS011;43379;48.160;14.036;2022-10-17T10:19:30;42.87;;;38.07;;
57551;SDS011;43379;48.160;14.036;2022-10-17T10:24:30;42.00;;;37.10;;
57551;SDS011;43379;48.160;14.036;2022-10-17T10:27:00;43.37;;;38.73;;
57551;SDS011;43379;48.160;14.036;2022-10-17T10:29:30;41.37;;;37.10;;
57551;SDS011;43379;48.160;14.036;2022-10-17T10:34:55;39.43;;;35.27;;
57551;SDS011;43379;48.160;14.036;2022-10-17T10:37:41;37.97;;;34.00;;
57551;SDS011;43379;48.160;14.036;2022-10-17T10:40:16;42.83;;;38.30;;
57551;SDS011;43379;48.160;14.036;2022-10-17T10:42:56;38.57;;;34.57;;
57551;SDS011;43379;48.160;14.036;2022-10-17T10:45:25;38.57;;;34.53;;
57551;SDS011;43379;48.160;14.036;2022-10-17T10:47:54;39.77;;;35.47;;
57551;SDS011;43379;48.160;14.036;2022-10-17T10:53:42;39.30;;;35.20;;
57551;SDS011;43379;48.160;14.036;2022-10-17T10:56:17;41.57;;;35.63;;
57551;SDS011;43379;48.160;14.036;2022-10-17T10:58:51;38.60;;;34.47;;
57551;SDS011;43379;48.160;14.036;2022-10-17T11:07:01;37.90;;;33.90;;
57551;SDS011;43379;48.160;14.036;2022-10-17T11:15:06;34.17;;;30.67;;
57551;SDS011;43379;48.160;14.036;2022-10-17T11:18:07;35.77;;;32.17;;
57551;SDS011;43379;48.160;14.036;2022-10-17T11:20:52;37.13;;;33.40;;
57551;SDS011;43379;48.160;14.036;2022-10-17T11:23:35;37.03;;;33.57;;
57551;SDS011;43379;48.160;14.036;2022-10-17T11:26:05;36.70;;;32.87;;
57551;SDS011;43379;48.160;14.036;2022-10-17T11:28:35;35.63;;;32.07;;
57551;SDS011;43379;48.160;14.036;2022-10-17T11:31:03;34.87;;;31.30;;
57551;SDS011;43379;48.160;14.036;2022-10-17T11:36:23;33.70;;;30.20;;
57551;SDS011;43379;48.160;14.036;2022-10-17T11:38:57;30.87;;;27.87;;
57551;SDS011;43379;48.160;14.036;2022-10-17T11:43:56;33.60;;;30.00;;
57551;SDS011;43379;48.160;14.036;2022-10-17T11:46:27;33.47;;;30.10;;
57551;SDS011;43379;48.160;14.036;2022-10-17T11:49:14;34.40;;;31.10;;
57551;SDS011;43379;48.160;14.036;2022-10-17T11:51:47;32.17;;;29.00;;
57551;SDS011;43379;48.160;14.036;2022-10-17T12:05:27;28.53;;;25.93;;
57551;SDS011;43379;48.160;14.036;2022-10-17T12:08:11;30.93;;;27.80;;
57551;SDS011;43379;48.160;14.036;2022-10-17T12:15:54;33.27;;;30.13;;
57551;SDS011;43379;48.160;14.036;2022-10-17T12:18:22;32.97;;;29.57;;
57551;SDS011;43379;48.160;14.036;2022-10-17T12:20:54;31.67;;;28.60;;
57551;SDS011;43379;48.160;14.036;2022-10-17T12:23:30;31.37;;;28.40;;
57551;SDS011;43379;48.160;14.036;2022-10-17T12:26:00;30.60;;;27.80;;
57551;SDS011;43379;48.160;14.036;2022-10-17T12:28:46;32.37;;;29.37;;
57551;SDS011;43379;48.160;14.036;2022-10-17T12:38:41;30.83;;;27.73;;
57551;SDS011;43379;48.160;14.036;2022-10-17T12:41:07;29.03;;;26.40;;
57551;SDS011;43379;48.160;14.036;2022-10-17T12:43:44;30.97;;;27.97;;
57551;SDS011;43379;48.160;14.036;2022-10-17T12:46:10;30.03;;;27.30;;
57551;SDS011;43379;48.160;14.036;2022-10-17T12:51:03;30.23;;;27.10;;
57551;SDS011;43379;48.160;14.036;2022-10-17T12:56:28;32.00;;;28.90;;
57551;SDS011;43379;48.160;14.036;2022-10-17T12:59:05;28.50;;;26.10;;
57551;SDS011;43379;48.160;14.036;2022-10-17T13:01:53;30.10;;;27.37;;
57551;SDS011;43379;48.160;14.036;2022-10-17T13:04:22;30.87;;;27.83;;
57551;SDS011;43379;48.160;14.036;2022-10-17T13:06:52;30.67;;;27.97;;
57551;SDS011;43379;48.160;14.036;2022-10-17T13:09:27;29.17;;;26.47;;
57551;SDS011;43379;48.160;14.036;2022-10-17T13:11:57;29.83;;;27.03;;
57551;SDS011;43379;48.160;14.036;2022-10-17T13:14:24;31.17;;;28.07;;
57551;SDS011;43379;48.160;14.036;2022-10-17T13:17:01;31.97;;;28.97;;
57551;SDS011;43379;48.160;14.036;2022-10-17T13:19:39;31.80;;;28.80;;
57551;SDS011;43379;48.160;14.036;2022-10-17T13:22:14;31.93;;;27.97;;
57551;SDS011;43379;48.160;14.036;2022-10-17T13:24:48;29.50;;;26.77;;
57551;SDS011;43379;48.160;14.036;2022-10-17T13:27:26;28.97;;;26.17;;
57551;SDS011;43379;48.160;14.036;2022-10-17T13:29:56;27.93;;;25.20;;
57551;SDS011;43379;48.160;14.036;2022-10-17T13:32:24;32.63;;;29.10;;
57551;SDS011;43379;48.160;14.036;2022-10-17T13:35:10;31.87;;;28.40;;
57551;SDS011;43379;48.160;14.036;2022-10-17T13:37:41;29.93;;;27.10;;
57551;SDS011;43379;48.160;14.036;2022-10-17T13:40:16;30.90;;;27.90;;
57551;SDS011;43379;48.160;14.036;2022-10-17T13:42:44;29.10;;;26.40;;
57551;SDS011;43379;48.160;14.036;2022-10-17T13:45:15;29.87;;;26.87;;
57551;SDS011;43379;48.160;14.036;2022-10-17T13:47:44;31.30;;;28.37;;
57551;SDS011;43379;48.160;14.036;2022-10-17T13:50:24;30.33;;;27.53;;
57551;SDS011;43379;48.160;14.036;2022-10-17T13:56:15;32.10;;;29.10;;
57551;SDS011;43379;48.160;14.036;2022-10-17T13:58:50;30.70;;;27.83;;
57551;SDS011;43379;48.160;14.036;2022-10-17T14:01:27;31.00;;;27.80;;
57551;SDS011;43379;48.160;14.036;2022-10-17T14:03:54;30.73;;;28.00;;
57551;SDS011;43379;48.160;14.036;2022-10-17T14:06:21;31.57;;;28.47;;
57551;SDS011;43379;48.160;14.036;2022-10-17T14:08:52;28.77;;;25.87;;
57551;SDS011;43379;48.160;14.036;2022-10-17T14:11:21;31.60;;;28.80;;
57551;SDS011;43379;48.160;14.036;2022-10-17T14:13:56;29.67;;;26.87;;
57551;SDS011;43379;48.160;14.036;2022-10-17T14:16:24;30.87;;;27.80;;
57551;SDS011;43379;48.160;14.036;2022-10-17T14:18:57;31.10;;;28.23;;
57551;SDS011;43379;48.160;14.036;2022-10-17T14:21:24;31.93;;;28.60;;
57551;SDS011;43379;48.160;14.036;2022-10-17T14:24:38;30.33;;;27.53;;
57551;SDS011;43379;48.160;14.036;2022-10-17T14:26:49;30.00;;;27.10;;
57551;SDS011;43379;48.160;14.036;2022-10-17T14:29:26;30.80;;;27.67;;
57551;SDS011;43379;48.160;14.036;2022-10-17T14:31:58;31.80;;;28.77;;
57551;SDS011;43379;48.160;14.036;2022-10-17T14:34:36;30.43;;;27.43;;
57551;SDS011;43379;48.160;14.036;2022-10-17T14:37:11;32.07;;;28.93;;
57551;SDS011;43379;48.160;14.036;2022-10-17T14:39:52;31.83;;;28.80;;
57551;SDS011;43379;48.160;14.036;2022-10-17T14:42:21;30.90;;;27.70;;
57551;SDS011;43379;48.160;14.036;2022-10-17T14:44:48;29.27;;;26.47;;
57551;SDS011;43379;48.160;14.036;2022-10-17T14:47:19;32.03;;;28.70;;
57551;SDS011;43379;48.160;14.036;2022-10-17T14:49:48;31.30;;;28.10;;
57551;SDS011;43379;48.160;14.036;2022-10-17T14:54:41;31.03;;;27.80;;
57551;SDS011;43379;48.160;14.036;2022-10-17T14:57:26;31.53;;;28.13;;
57551;SDS011;43379;48.160;14.036;2022-10-17T14:59:58;31.10;;;27.97;;
57551;SDS011;43379;48.160;14.036;2022-10-17T15:02:24;28.63;;;26.00;;
57551;SDS011;43379;48.160;14.036;2022-10-17T15:04:52;30.73;;;27.73;;
57551;SDS011;43379;48.160;14.036;2022-10-17T15:07:18;31.43;;;28.03;;
57551;SDS011;43379;48.160;14.036;2022-10-17T15:09:46;32.80;;;29.63;;
57551;SDS011;43379;48.160;14.036;2022-10-17T15:12:23;34.00;;;28.90;;
57551;SDS011;43379;48.160;14.036;2022-10-17T15:14:49;30.80;;;27.40;;
57551;SDS011;43379;48.160;14.036;2022-10-17T15:17:30;31.10;;;28.00;;
57551;SDS011;43379;48.160;14.036;2022-10-17T15:19:58;31.33;;;28.13;;
57551;SDS011;43379;48.160;14.036;2022-10-17T15:22:24;32.77;;;29.60;;
57551;SDS011;43379;48.160;14.036;2022-10-17T15:24:49;30.57;;;27.67;;
57551;SDS011;43379;48.160;14.036;2022-10-17T15:27:16;31.73;;;28.57;;
57551;SDS011;43379;48.160;14.036;2022-10-17T15:29:44;31.30;;;28.23;;
57551;SDS011;43379;48.160;14.036;2022-10-17T15:32:10;32.40;;;29.30;;
57551;SDS011;43379;48.160;14.036;2022-10-17T15:34:36;33.20;;;30.00;;
57551;SDS011;43379;48.160;14.036;2022-10-17T15:37:02;32.23;;;28.93;;
57551;SDS011;43379;48.160;14.036;2022-10-17T15:39:29;33.33;;;29.97;;
57551;SDS011;43379;48.160;14.036;2022-10-17T15:41:55;32.43;;;29.23;;
57551;SDS011;43379;48.160;14.036;2022-10-17T15:44:20;33.93;;;30.50;;
57551;SDS011;43379;48.160;14.036;2022-10-17T15:46:46;33.77;;;30.50;;
57551;SDS011;43379;48.160;14.036;2022-10-17T15:49:13;35.37;;;31.80;;
57551;SDS011;43379;48.160;14.036;2022-10-17T15:51:41;32.47;;;29.33;;
57551;SDS011;43379;48.160;14.036;2022-10-17T15:54:07;32.73;;;29.60;;
57551;SDS011;43379;48.160;14.036;2022-10-17T15:56:34;34.17;;;30.70;;
57551;SDS011;43379;48.160;14.036;2022-10-17T15:59:11;31.93;;;28.83;;
57551;SDS011;43379;48.160;14.036;2022-10-17T16:01:38;31.60;;;28.40;;
57551;SDS011;43379;48.160;14.036;2022-10-17T16:04:05;32.40;;;29.20;;
57551;SDS011;43379;48.160;14.036;2022-10-17T16:06:33;32.63;;;29.50;;
57551;SDS011;43379;48.160;14.036;2022-10-17T16:08:58;33.37;;;30.07;;
57551;SDS011;43379;48.160;14.036;2022-10-17T16:11:31;33.63;;;30.17;;
57551;SDS011;43379;48.160;14.036;2022-10-17T16:14:06;32.63;;;29.40;;
57551;SDS011;43379;48.160;14.036;2022-10-17T16:16:35;36.57;;;32.87;;
57551;SDS011;43379;48.160;14.036;2022-10-17T16:19:00;33.77;;;30.47;;
57551;SDS011;43379;48.160;14.036;2022-10-17T16:21:27;35.03;;;31.40;;
57551;SDS011;43379;48.160;14.036;2022-10-17T16:23:55;34.93;;;31.17;;
57551;SDS011;43379;48.160;14.036;2022-10-17T16:26:21;36.63;;;32.73;;
57551;SDS011;43379;48.160;14.036;2022-10-17T16:28:47;35.60;;;31.90;;
57551;SDS011;43379;48.160;14.036;2022-10-17T16:31:34;36.77;;;32.87;;